Time;durP1;ratioP1;P1;durP2;ratioP2;P2;SDS_P1;SDS_P2;PMS_P1;PMS_P2;Temp;Humidity;BMP_temperature;BMP_pressure;BME280_temperature;BME280_humidity;BME280_pressure;Samples;Min_cycle;Max_cycle;Signal;HPM_P1;HPM_P2
2021/05/10 00:02:23;;;;;;;4.83;4.07;;;18.20;68.70;;;;;;5006056;28;20463;-53
2021/05/10 00:04:50;;;;;;;4.40;3.50;;;18.20;68.90;;;;;;5005108;28;20484;-53
2021/05/10 00:07:16;;;;;;;5.20;3.50;;;18.10;68.80;;;;;;5002690;28;20452;-53
2021/05/10 00:09:44;;;;;;;4.80;3.43;;;18.10;68.80;;;;;;5001525;28;20461;-53
2021/05/10 00:12:12;;;;;;;4.13;3.57;;;18.10;68.80;;;;;;5004782;28;20453;-52
2021/05/10 00:14:44;;;;;;;4.30;2.87;;;18.10;68.80;;;;;;5005801;28;20526;-53
2021/05/10 00:17:11;;;;;;;3.33;2.67;;;18.10;68.70;;;;;;5006101;28;20584;-52
2021/05/10 00:19:37;;;;;;;4.30;2.47;;;18.10;68.30;;;;;;5005930;28;20459;-51
2021/05/10 00:22:04;;;;;;;2.80;2.50;;;18.00;68.20;;;;;;5001417;28;20558;-53
2021/05/10 00:24:30;;;;;;;9.33;3.17;;;18.00;68.10;;;;;;5004247;28;20913;-53
2021/05/10 00:26:56;;;;;;;7.07;3.37;;;18.00;68.10;;;;;;5002395;28;20926;-53
2021/05/10 00:29:23;;;;;;;3.93;2.93;;;18.00;68.00;;;;;;5004349;28;20467;-53
2021/05/10 00:31:50;;;;;;;9.00;3.20;;;18.00;68.00;;;;;;5006342;28;20487;-53
2021/05/10 00:34:16;;;;;;;5.23;2.97;;;17.90;68.10;;;;;;5004417;28;20823;-52
2021/05/10 00:36:43;;;;;;;3.83;2.43;;;17.90;68.30;;;;;;5002141;28;20503;-52
2021/05/10 00:39:10;;;;;;;7.90;3.30;;;17.90;68.40;;;;;;5006911;28;20469;-52
2021/05/10 00:41:37;;;;;;;3.90;2.90;;;17.90;68.40;;;;;;5005879;28;20468;-52
2021/05/10 00:44:04;;;;;;;3.73;2.90;;;17.90;68.80;;;;;;5019307;28;20504;-52
2021/05/10 00:46:32;;;;;;;2.97;2.67;;;17.90;68.90;;;;;;5007511;28;20945;-52
2021/05/10 00:48:58;;;;;;;4.53;2.73;;;17.90;68.80;;;;;;5006335;28;20527;-52
2021/05/10 00:51:25;;;;;;;3.00;2.67;;;17.80;68.80;;;;;;5002703;28;20461;-52
2021/05/10 00:53:51;;;;;;;9.10;2.53;;;17.80;68.70;;;;;;5006343;28;20823;-52
2021/05/10 00:56:18;;;;;;;5.87;2.70;;;17.90;68.40;;;;;;5002459;28;20468;-52
2021/05/10 00:58:46;;;;;;;3.10;2.80;;;17.80;68.10;;;;;;5003895;28;20555;-52
2021/05/10 01:01:13;;;;;;;3.37;2.93;;;17.80;68.10;;;;;;5006200;28;21019;-52
2021/05/10 01:03:40;;;;;;;4.77;3.13;;;17.80;68.10;;;;;;5002881;28;20927;-52
2021/05/10 01:06:07;;;;;;;5.27;2.70;;;17.80;68.30;;;;;;5004018;28;20502;-52
2021/05/10 01:08:33;;;;;;;3.63;3.10;;;17.80;68.40;;;;;;5012962;28;20496;-52
2021/05/10 01:11:00;;;;;;;4.30;2.90;;;17.80;68.60;;;;;;5002808;28;20448;-52
2021/05/10 01:13:26;;;;;;;7.37;2.97;;;17.80;68.40;;;;;;5002634;28;20460;-52
2021/05/10 01:15:53;;;;;;;4.13;3.07;;;17.80;68.40;;;;;;5001929;28;20492;-52
2021/05/10 01:18:20;;;;;;;5.40;3.40;;;17.70;68.60;;;;;;5004657;28;20455;-52
2021/05/10 01:20:49;;;;;;;6.00;3.20;;;17.80;68.80;;;;;;5006366;28;20460;-52
2021/05/10 01:23:16;;;;;;;7.50;2.80;;;17.80;68.60;;;;;;5000766;28;20519;-52
2021/05/10 01:25:43;;;;;;;7.13;3.10;;;17.70;68.90;;;;;;5007506;28;20463;-52
2021/05/10 01:28:10;;;;;;;4.03;3.23;;;17.70;69.00;;;;;;5001279;28;21024;-52
2021/05/10 01:30:39;;;;;;;5.77;3.43;;;17.70;69.00;;;;;;5005578;28;20448;-52
2021/05/10 01:33:07;;;;;;;2.63;2.43;;;17.70;69.10;;;;;;5019823;28;20954;-52
2021/05/10 01:35:37;;;;;;;4.00;3.17;;;17.70;69.20;;;;;;5001536;28;20462;-52
2021/05/10 01:38:06;;;;;;;4.83;3.97;;;17.70;69.30;;;;;;5006022;28;20825;-52
2021/05/10 01:40:33;;;;;;;3.23;2.93;;;17.70;69.60;;;;;;5006099;28;20820;-52
2021/05/10 01:43:00;;;;;;;4.70;3.40;;;17.70;69.60;;;;;;5005716;28;20801;-52
2021/05/10 01:45:27;;;;;;;4.03;3.40;;;17.70;69.70;;;;;;5004301;28;20515;-52
2021/05/10 01:48:05;;;;;;;4.10;2.87;;;17.80;69.80;;;;;;5004412;28;20465;-52
2021/05/10 01:50:33;;;;;;;4.83;4.00;;;17.70;70.10;;;;;;5007032;28;20452;-52
2021/05/10 01:52:59;;;;;;;3.73;3.47;;;17.70;69.90;;;;;;5000783;28;20608;-52
2021/05/10 01:55:26;;;;;;;5.60;3.03;;;17.80;69.50;;;;;;5004990;28;20466;-52
2021/05/10 01:57:56;;;;;;;3.60;3.10;;;17.80;69.10;;;;;;5003885;28;20472;-52
2021/05/10 02:00:29;;;;;;;4.23;3.03;;;17.80;68.10;;;;;;5003487;28;21353;-52
2021/05/10 02:03:16;;;;;;;5.23;3.30;;;17.90;67.60;;;;;;5006371;28;20555;-52
2021/05/10 02:05:44;;;;;;;6.00;3.27;;;17.90;67.60;;;;;;5003408;28;20499;-52
2021/05/10 02:08:12;;;;;;;3.87;2.83;;;17.90;67.60;;;;;;5009538;28;20460;-52
2021/05/10 02:10:44;;;;;;;6.80;3.60;;;17.90;67.60;;;;;;5007246;28;20574;-52
2021/05/10 02:13:11;;;;;;;4.30;3.90;;;17.90;67.60;;;;;;5022715;28;20456;-52
2021/05/10 02:15:43;;;;;;;3.57;3.23;;;18.00;67.50;;;;;;5009520;28;20476;-52
2021/05/10 02:18:11;;;;;;;3.70;3.20;;;18.00;67.70;;;;;;5011095;28;20828;-52
2021/05/10 02:20:38;;;;;;;5.10;3.30;;;18.00;67.50;;;;;;5010521;28;20479;-52
2021/05/10 02:23:27;;;;;;;4.47;3.23;;;18.00;67.20;;;;;;5004365;28;20838;-52
2021/05/10 02:25:56;;;;;;;3.43;3.10;;;18.10;67.60;;;;;;5009895;28;20465;-52
2021/05/10 02:28:26;;;;;;;3.77;3.47;;;18.10;67.10;;;;;;5022083;28;20875;-52
2021/05/10 02:30:54;;;;;;;4.67;3.33;;;18.20;66.90;;;;;;5008482;28;20468;-52
2021/05/10 02:33:23;;;;;;;4.10;2.97;;;18.20;67.20;;;;;;5023045;28;20998;-52
2021/05/10 02:35:53;;;;;;;9.07;3.20;;;18.10;67.50;;;;;;5006724;28;20510;-52
2021/05/10 02:38:20;;;;;;;4.10;3.37;;;18.10;67.60;;;;;;5010245;28;20522;-52
2021/05/10 02:40:48;;;;;;;3.63;3.23;;;18.10;67.80;;;;;;5005560;28;20518;-52
2021/05/10 02:43:23;;;;;;;4.10;3.80;;;18.10;67.40;;;;;;5008668;28;20462;-52
2021/05/10 02:45:50;;;;;;;3.57;3.10;;;18.10;67.30;;;;;;5010576;28;21007;-52
2021/05/10 02:48:17;;;;;;;7.83;3.57;;;18.10;67.80;;;;;;5007274;28;20460;-52
2021/05/10 02:50:44;;;;;;;4.47;3.63;;;18.10;67.20;;;;;;5011147;28;20554;-52
2021/05/10 02:53:11;;;;;;;8.43;3.17;;;18.10;67.20;;;;;;5007928;28;20555;-52
2021/05/10 02:55:37;;;;;;;3.60;3.30;;;18.00;67.50;;;;;;5025765;28;20460;-52
2021/05/10 02:58:04;;;;;;;3.30;3.00;;;18.00;67.70;;;;;;5010345;28;20933;-51
2021/05/10 03:00:31;;;;;;;3.93;3.57;;;18.00;68.20;;;;;;5007273;28;20877;-48
2021/05/10 03:02:58;;;;;;;4.13;2.97;;;17.90;68.30;;;;;;5007708;28;20467;-47
2021/05/10 03:05:26;;;;;;;4.20;3.10;;;17.90;68.40;;;;;;5008364;28;21011;-47
2021/05/10 03:07:53;;;;;;;3.87;3.23;;;17.90;68.60;;;;;;5007269;28;20457;-47
2021/05/10 03:10:22;;;;;;;5.60;3.40;;;17.90;68.80;;;;;;5003387;28;20943;-47
2021/05/10 03:12:49;;;;;;;5.60;3.63;;;17.80;69.00;;;;;;5009612;28;20924;-47
2021/05/10 03:15:18;;;;;;;8.67;3.17;;;17.90;69.40;;;;;;5002812;28;20485;-48
2021/05/10 03:17:46;;;;;;;5.10;3.30;;;17.90;69.30;;;;;;5007856;28;20851;-47
2021/05/10 03:20:19;;;;;;;4.70;3.70;;;17.90;69.20;;;;;;5008420;28;20471;-47
2021/05/10 03:22:50;;;;;;;6.23;3.57;;;17.90;68.80;;;;;;5004964;28;20573;-47
2021/05/10 03:25:18;;;;;;;4.63;3.57;;;17.90;68.50;;;;;;5004880;28;20989;-47
2021/05/10 03:27:45;;;;;;;3.30;3.00;;;17.80;68.50;;;;;;5007980;28;20452;-47
2021/05/10 03:30:20;;;;;;;4.07;3.30;;;17.80;68.60;;;;;;5007441;28;20539;-47
2021/05/10 03:32:47;;;;;;;3.40;3.10;;;17.80;69.10;;;;;;5007583;28;20548;-47
2021/05/10 03:35:15;;;;;;;4.30;2.97;;;17.90;69.20;;;;;;5004130;28;20506;-47
2021/05/10 03:37:43;;;;;;;5.33;3.30;;;17.80;69.20;;;;;;5004570;28;20500;-47
2021/05/10 03:40:12;;;;;;;3.80;3.50;;;17.80;69.00;;;;;;5007833;28;20465;-48
2021/05/10 03:42:39;;;;;;;3.83;3.57;;;17.80;69.00;;;;;;5007512;28;20488;-47
2021/05/10 03:45:07;;;;;;;3.13;2.80;;;17.80;69.20;;;;;;5004122;28;20548;-47
2021/05/10 03:47:41;;;;;;;3.03;2.83;;;17.80;69.40;;;;;;5009889;28;20456;-47
2021/05/10 03:50:16;;;;;;;6.40;3.27;;;17.80;69.50;;;;;;5006495;28;20456;-47
2021/05/10 03:52:44;;;;;;;3.80;3.37;;;17.80;69.60;;;;;;5004724;28;20537;-47
2021/05/10 03:55:14;;;;;;;5.03;3.87;;;17.80;69.70;;;;;;5005928;28;20823;-47
2021/05/10 03:57:41;;;;;;;4.40;4.00;;;17.80;70.10;;;;;;5020368;28;20530;-47
2021/05/10 04:00:10;;;;;;;3.73;3.43;;;17.80;70.10;;;;;;5008527;28;20510;-47
2021/05/10 04:02:38;;;;;;;5.07;3.70;;;17.70;70.00;;;;;;5007222;28;21611;-47
2021/05/10 04:07:42;;;;;;;3.60;3.30;;;17.80;69.70;;;;;;5006237;28;20548;-47
2021/05/10 04:15:29;;;;;;;3.90;3.60;;;17.90;70.50;;;;;;5007335;28;20912;-48
2021/05/10 04:17:56;;;;;;;14.53;5.20;;;17.80;70.50;;;;;;5002981;28;20521;-47
2021/05/10 04:20:22;;;;;;;4.07;3.73;;;17.80;70.30;;;;;;5005335;28;21146;-47
2021/05/10 04:22:49;;;;;;;4.23;3.83;;;17.70;70.40;;;;;;5004169;28;20464;-47
2021/05/10 04:25:16;;;;;;;6.60;3.93;;;17.70;70.30;;;;;;5005059;28;20491;-47
2021/05/10 04:27:42;;;;;;;7.43;5.37;;;17.70;71.10;;;;;;5006845;28;20453;-47
2021/05/10 04:30:09;;;;;;;4.30;3.80;;;17.60;71.60;;;;;;5004293;28;20456;-48
2021/05/10 04:32:36;;;;;;;4.60;3.87;;;17.60;72.00;;;;;;5004419;28;20452;-47
2021/05/10 04:35:05;;;;;;;5.60;3.40;;;17.60;72.40;;;;;;5006630;28;20464;-47
2021/05/10 04:37:31;;;;;;;4.63;4.07;;;17.60;72.90;;;;;;5007275;28;20510;-47
2021/05/10 04:39:58;;;;;;;5.03;3.77;;;17.60;73.20;;;;;;5006263;28;20539;-47
2021/05/10 04:42:24;;;;;;;5.90;3.40;;;17.60;73.40;;;;;;5008818;28;20571;-47
2021/05/10 04:44:52;;;;;;;4.50;4.10;;;17.70;73.60;;;;;;5009249;28;20491;-47
2021/05/10 04:47:18;;;;;;;8.23;4.30;;;17.70;73.60;;;;;;5006064;28;20534;-47
2021/05/10 04:49:45;;;;;;;4.70;3.73;;;17.70;73.70;;;;;;5009082;28;20495;-47
2021/05/10 04:52:12;;;;;;;8.47;4.43;;;17.70;73.80;;;;;;5004877;28;20804;-47
2021/05/10 04:54:38;;;;;;;7.50;4.17;;;17.70;74.50;;;;;;5009614;28;20957;-47
2021/05/10 04:57:05;;;;;;;4.90;4.50;;;17.70;74.60;;;;;;5007751;28;20476;-47
2021/05/10 04:59:32;;;;;;;5.83;4.50;;;17.70;74.70;;;;;;5008212;28;20567;-47
2021/05/10 05:01:58;;;;;;;4.27;3.87;;;17.70;74.90;;;;;;5008118;28;20464;-47
2021/05/10 05:04:25;;;;;;;5.57;5.07;;;17.70;75.10;;;;;;5008377;28;20586;-47
2021/05/10 05:06:52;;;;;;;5.20;4.43;;;17.70;75.70;;;;;;5004038;28;20984;-47
2021/05/10 05:09:18;;;;;;;6.90;4.40;;;17.70;75.60;;;;;;5000425;28;20462;-47
2021/05/10 05:11:47;;;;;;;9.00;4.47;;;17.70;75.60;;;;;;5008311;28;20460;-47
2021/05/10 05:14:14;;;;;;;8.00;4.17;;;17.70;75.80;;;;;;5004555;28;20469;-47
2021/05/10 05:16:40;;;;;;;5.67;4.50;;;17.70;75.90;;;;;;5024589;28;20476;-47
2021/05/10 05:19:07;;;;;;;10.50;4.80;;;17.70;76.20;;;;;;5010423;28;20535;-47
2021/05/10 05:21:34;;;;;;;8.97;3.97;;;17.80;76.20;;;;;;5005698;28;20467;-47
2021/05/10 05:24:01;;;;;;;8.67;4.27;;;17.80;76.20;;;;;;5009764;28;20630;-47
2021/05/10 05:26:27;;;;;;;5.90;3.93;;;17.70;76.00;;;;;;5007324;28;20491;-47
2021/05/10 05:28:54;;;;;;;5.60;4.77;;;17.70;75.80;;;;;;5006836;28;20471;-47
2021/05/10 05:31:23;;;;;;;5.13;4.63;;;17.70;75.80;;;;;;5007300;28;20496;-48
2021/05/10 05:33:50;;;;;;;6.33;4.83;;;17.80;76.00;;;;;;5008142;28;20484;-47
2021/05/10 05:36:28;;;;;;;4.50;4.10;;;17.80;76.20;;;;;;5002354;28;21991;-47
2021/05/10 05:38:54;;;;;;;4.70;4.10;;;17.80;76.50;;;;;;5005983;28;20555;-48
2021/05/10 05:41:23;;;;;;;7.13;4.17;;;17.80;76.70;;;;;;4999186;28;20460;-47
2021/05/10 05:43:49;;;;;;;3.97;3.57;;;17.80;76.80;;;;;;5006340;28;20528;-47
2021/05/10 05:46:25;;;;;;;5.27;3.87;;;17.80;76.90;;;;;;4984146;28;20457;-47
2021/05/10 05:48:52;;;;;;;6.87;3.50;;;17.90;77.10;;;;;;5007837;28;20452;-47
2021/05/10 05:51:19;;;;;;;5.50;4.20;;;17.90;77.10;;;;;;5002508;28;20611;-47
2021/05/10 05:53:45;;;;;;;6.90;3.87;;;17.90;77.00;;;;;;5004952;28;21009;-47
2021/05/10 05:56:12;;;;;;;4.13;3.40;;;18.00;76.30;;;;;;5005139;28;20547;-47
2021/05/10 05:58:38;;;;;;;4.10;3.20;;;18.10;75.50;;;;;;5005156;28;21050;-47
2021/05/10 06:01:04;;;;;;;3.30;2.93;;;18.20;75.10;;;;;;5003315;28;20453;-47
2021/05/10 06:03:31;;;;;;;4.90;3.30;;;18.30;74.80;;;;;;5007097;28;20461;-47
2021/05/10 06:05:58;;;;;;;3.70;2.90;;;18.30;73.60;;;;;;5005960;28;20571;-47
2021/05/10 06:08:24;;;;;;;3.00;2.63;;;18.40;73.10;;;;;;5005804;28;21020;-47
2021/05/10 06:10:51;;;;;;;3.87;2.73;;;18.40;72.20;;;;;;5005586;28;20583;-47
2021/05/10 06:13:24;;;;;;;3.50;3.20;;;18.40;71.90;;;;;;5007055;28;20821;-47
2021/05/10 06:15:51;;;;;;;4.47;3.60;;;18.50;71.90;;;;;;5014420;28;21071;-47
2021/05/10 06:18:17;;;;;;;4.57;3.13;;;18.50;70.60;;;;;;5002739;28;21023;-47
2021/05/10 06:20:44;;;;;;;8.60;3.27;;;18.60;70.50;;;;;;5002108;28;20991;-47
2021/05/10 06:23:10;;;;;;;2.73;2.53;;;18.70;69.70;;;;;;4996380;28;20531;-47
2021/05/10 06:25:37;;;;;;;2.90;2.67;;;18.70;68.70;;;;;;5001629;28;20525;-47
2021/05/10 06:28:04;;;;;;;7.97;7.07;;;18.80;68.90;;;;;;5003950;28;20456;-47
2021/05/10 06:30:30;;;;;;;4.27;3.63;;;18.80;69.00;;;;;;4995626;28;20456;-47
2021/05/10 06:32:57;;;;;;;3.20;2.83;;;18.80;69.00;;;;;;5001974;28;20957;-47
2021/05/10 06:35:23;;;;;;;3.17;2.33;;;18.90;69.40;;;;;;5001796;28;20464;-47
2021/05/10 06:37:50;;;;;;;3.90;2.27;;;19.00;69.20;;;;;;5006205;28;20474;-47
2021/05/10 06:40:16;;;;;;;3.20;2.73;;;19.00;68.50;;;;;;5000218;28;20457;-47
2021/05/10 06:42:50;;;;;;;3.03;2.03;;;19.10;67.40;;;;;;5004842;28;20988;-47
2021/05/10 06:45:17;;;;;;;4.67;2.37;;;19.20;67.50;;;;;;4993245;28;20956;-47
2021/05/10 06:47:44;;;;;;;2.63;2.43;;;19.20;67.00;;;;;;4998688;28;20452;-47
2021/05/10 06:50:11;;;;;;;5.20;2.77;;;19.30;67.40;;;;;;5004616;28;20448;-47
2021/05/10 06:52:38;;;;;;;2.30;2.10;;;19.30;67.00;;;;;;5003136;28;20493;-47
2021/05/10 06:55:06;;;;;;;5.70;2.63;;;19.40;66.80;;;;;;5026739;28;20459;-47
2021/05/10 06:57:33;;;;;;;3.00;2.10;;;19.50;66.60;;;;;;5010157;28;20945;-47
2021/05/10 07:00:00;;;;;;;4.37;2.07;;;19.60;66.20;;;;;;5010493;28;20827;-47
2021/05/10 07:02:26;;;;;;;4.70;2.77;;;19.60;65.90;;;;;;4998532;28;20467;-47
2021/05/10 07:04:54;;;;;;;3.60;2.07;;;19.70;66.20;;;;;;5003341;28;20837;-47
2021/05/10 07:07:20;;;;;;;3.07;2.00;;;19.80;66.80;;;;;;5024230;28;20551;-47
2021/05/10 07:09:52;;;;;;;4.00;2.43;;;19.90;66.40;;;;;;5015155;28;20479;-47
2021/05/10 07:12:19;;;;;;;4.00;2.27;;;19.90;65.80;;;;;;5010520;28;20459;-47
2021/05/10 07:14:47;;;;;;;4.80;2.30;;;20.00;65.20;;;;;;5014396;28;20826;-47
2021/05/10 07:17:14;;;;;;;4.13;2.23;;;20.00;65.70;;;;;;5006617;28;20474;-47
2021/05/10 07:19:40;;;;;;;4.87;2.43;;;20.00;64.60;;;;;;5012701;28;20530;-47
2021/05/10 07:22:07;;;;;;;6.40;2.20;;;20.10;64.00;;;;;;5013780;28;20996;-47
2021/05/10 07:24:34;;;;;;;3.40;2.10;;;20.10;63.80;;;;;;5008892;28;20523;-47
2021/05/10 07:27:00;;;;;;;4.30;2.27;;;20.10;64.20;;;;;;5013438;28;20491;-47
2021/05/10 07:29:27;;;;;;;3.67;2.17;;;20.10;64.20;;;;;;5012883;28;20551;-47
2021/05/10 07:31:54;;;;;;;5.47;1.90;;;20.20;64.70;;;;;;5006026;28;20456;-47
2021/05/10 07:34:25;;;;;;;5.97;2.17;;;20.30;63.90;;;;;;5014808;28;20467;-47
2021/05/10 07:36:51;;;;;;;3.43;2.70;;;20.40;63.70;;;;;;5019940;28;20909;-47
2021/05/10 07:39:18;;;;;;;5.87;2.10;;;20.40;63.40;;;;;;5006333;28;20476;-47
2021/05/10 07:41:44;;;;;;;3.43;2.17;;;20.50;62.80;;;;;;5007595;28;20464;-47
2021/05/10 07:44:10;;;;;;;2.63;2.00;;;20.60;62.80;;;;;;5007378;28;20517;-48
2021/05/10 07:46:37;;;;;;;3.70;2.30;;;20.60;63.60;;;;;;5012211;28;20459;-48
2021/05/10 07:49:03;;;;;;;3.63;2.27;;;20.70;62.90;;;;;;5029375;28;20530;-47
2021/05/10 07:51:29;;;;;;;3.83;1.80;;;20.70;62.80;;;;;;5015083;28;20457;-47
2021/05/10 07:53:56;;;;;;;3.93;1.83;;;20.70;61.80;;;;;;5008541;28;20449;-48
2021/05/10 07:56:24;;;;;;;6.33;2.37;;;20.80;62.10;;;;;;5005558;28;20456;-48
2021/05/10 07:58:52;;;;;;;4.37;2.30;;;20.70;62.00;;;;;;5016977;28;20464;-48
2021/05/10 08:01:18;;;;;;;2.63;1.70;;;20.70;62.10;;;;;;5006657;28;20475;-47
2021/05/10 08:03:46;;;;;;;3.63;2.13;;;20.70;61.50;;;;;;5011081;28;20815;-48
2021/05/10 08:06:12;;;;;;;1.97;1.77;;;20.60;61.50;;;;;;5008160;28;20447;-48
2021/05/10 08:08:39;;;;;;;2.50;1.87;;;20.60;62.10;;;;;;5014239;28;20614;-48
2021/05/10 08:11:06;;;;;;;2.00;1.80;;;20.50;62.80;;;;;;5005068;28;20543;-48
2021/05/10 08:13:33;;;;;;;2.83;2.17;;;20.50;63.70;;;;;;5008363;28;20464;-48
2021/05/10 08:15:59;;;;;;;4.03;1.70;;;20.40;63.80;;;;;;5007934;28;20535;-48
2021/05/10 08:18:26;;;;;;;5.93;1.80;;;20.40;64.40;;;;;;5009390;28;20464;-48
2021/05/10 08:20:56;;;;;;;4.63;1.70;;;20.30;64.30;;;;;;5013518;28;20941;-48
2021/05/10 08:23:24;;;;;;;2.90;2.00;;;20.20;64.40;;;;;;5009382;28;20496;-48
2021/05/10 08:25:52;;;;;;;3.83;2.30;;;20.10;64.80;;;;;;5004035;28;20542;-48
2021/05/10 08:28:19;;;;;;;3.67;2.00;;;20.00;64.40;;;;;;5011054;28;20492;-47
2021/05/10 08:30:45;;;;;;;3.77;1.87;;;20.00;64.60;;;;;;5007498;28;20460;-47
2021/05/10 08:33:11;;;;;;;5.70;1.70;;;19.90;65.10;;;;;;4992966;28;20502;-47
2021/05/10 08:35:37;;;;;;;2.10;1.70;;;19.90;65.60;;;;;;5009434;28;20456;-47
2021/05/10 08:38:04;;;;;;;4.23;2.90;;;19.90;65.20;;;;;;5021347;28;20540;-47
2021/05/10 08:40:31;;;;;;;6.23;4.20;;;19.90;65.00;;;;;;5009979;28;20873;-47
2021/05/10 08:42:59;;;;;;;5.20;2.07;;;19.90;64.80;;;;;;5007053;28;20555;-47
2021/05/10 08:45:27;;;;;;;4.23;1.33;;;19.90;64.90;;;;;;5011910;28;20486;-47
2021/05/10 08:48:06;;;;;;;3.03;1.60;;;19.90;64.60;;;;;;4993367;28;20448;-47
2021/05/10 08:50:32;;;;;;;2.53;1.40;;;19.90;64.10;;;;;;5012575;28;20451;-47
2021/05/10 08:52:59;;;;;;;2.13;1.40;;;19.90;64.10;;;;;;5007234;28;20848;-47
2021/05/10 08:55:25;;;;;;;2.00;1.40;;;19.90;63.80;;;;;;5003961;28;20504;-47
2021/05/10 08:57:51;;;;;;;2.67;1.33;;;19.90;63.50;;;;;;5008645;28;20544;-47
2021/05/10 09:00:21;;;;;;;1.97;1.30;;;19.90;62.90;;;;;;5005330;28;20489;-47
2021/05/10 09:02:48;;;;;;;1.00;0.97;;;19.90;63.30;;;;;;5006119;28;20551;-47
2021/05/10 09:05:19;;;;;;;2.43;1.30;;;20.00;62.90;;;;;;5002412;28;20492;-47
2021/05/10 09:08:06;;;;;;;3.40;1.40;;;20.00;62.90;;;;;;5003647;28;20461;-47
2021/05/10 09:10:32;;;;;;;2.27;1.30;;;20.00;62.60;;;;;;5009212;28;20460;-47
2021/05/10 09:12:58;;;;;;;1.40;1.30;;;19.90;62.90;;;;;;5006428;28;20453;-47
2021/05/10 09:15:32;;;;;;;2.67;1.37;;;19.90;63.00;;;;;;5006993;28;20571;-47
2021/05/10 09:18:09;;;;;;;2.53;1.63;;;19.90;62.80;;;;;;5008153;28;20992;-47
2021/05/10 09:20:41;;;;;;;3.30;1.17;;;19.80;63.10;;;;;;5005335;28;20677;-47
2021/05/10 09:23:14;;;;;;;4.13;1.10;;;19.80;62.50;;;;;;5008781;28;21109;-46
2021/05/10 09:25:44;;;;;;;1.67;1.20;;;19.70;62.10;;;;;;5008020;28;20489;-47
2021/05/10 09:28:25;;;;;;;1.10;1.00;;;19.70;62.00;;;;;;5009457;28;20546;-47
2021/05/10 09:30:54;;;;;;;1.37;1.00;;;19.60;62.10;;;;;;5003957;28;20503;-47
2021/05/10 09:33:25;;;;;;;5.27;1.33;;;19.60;62.80;;;;;;5023534;28;20965;-48
2021/05/10 09:35:56;;;;;;;2.17;1.50;;;19.60;62.80;;;;;;5000016;28;20903;-48
2021/05/10 09:38:25;;;;;;;2.10;1.23;;;19.50;63.00;;;;;;5010933;28;20464;-48
2021/05/10 09:40:57;;;;;;;1.13;0.87;;;19.40;63.40;;;;;;5001625;28;20460;-47
2021/05/10 09:43:36;;;;;;;1.00;0.90;;;19.40;63.80;;;;;;5006972;28;20547;-48
2021/05/10 09:46:12;;;;;;;3.27;1.20;;;19.50;63.50;;;;;;5005153;28;20562;-48
2021/05/10 09:49:00;;;;;;;1.30;1.10;;;19.50;63.70;;;;;;5007765;28;20851;-48
2021/05/10 09:51:27;;;;;;;1.57;0.90;;;19.50;63.80;;;;;;5011231;28;20448;-48
2021/05/10 09:53:56;;;;;;;3.40;1.03;;;19.50;63.90;;;;;;5006023;28;21029;-48
2021/05/10 09:56:28;;;;;;;4.30;0.83;;;19.50;63.90;;;;;;5009541;28;20546;-48
2021/05/10 09:59:05;;;;;;;0.77;0.70;;;19.40;63.00;;;;;;5011790;28;20492;-48
2021/05/10 10:01:45;;;;;;;5.83;1.00;;;19.40;62.60;;;;;;5012022;28;20464;-49
2021/05/10 10:04:13;;;;;;;2.40;0.80;;;19.40;63.00;;;;;;5008415;28;20463;-48
2021/05/10 10:06:40;;;;;;;6.23;0.93;;;19.40;63.00;;;;;;4997663;28;20500;-48
2021/05/10 10:09:07;;;;;;;1.10;1.00;;;19.40;63.40;;;;;;4999317;28;20463;-48
2021/05/10 10:11:34;;;;;;;0.90;0.77;;;19.30;63.80;;;;;;5005188;28;20467;-48
2021/05/10 10:14:04;;;;;;;2.17;0.77;;;19.30;64.10;;;;;;5009108;28;20536;-48
2021/05/10 10:16:33;;;;;;;1.00;0.67;;;19.30;63.50;;;;;;5006573;28;20488;-48
2021/05/10 10:19:02;;;;;;;1.93;1.17;;;19.30;63.40;;;;;;5011203;28;20450;-48
2021/05/10 10:21:29;;;;;;;1.00;0.67;;;19.30;64.10;;;;;;5007589;28;20992;-48
2021/05/10 10:24:04;;;;;;;1.03;0.97;;;19.20;63.70;;;;;;5009555;28;20878;-48
2021/05/10 10:26:51;;;;;;;0.90;0.80;;;19.20;63.90;;;;;;5000519;28;20835;-48
2021/05/10 10:29:19;;;;;;;1.00;0.57;;;19.20;64.20;;;;;;5012949;28;20460;-48
2021/05/10 10:31:48;;;;;;;1.53;1.00;;;19.20;64.60;;;;;;4987600;28;21024;-48
2021/05/10 10:34:26;;;;;;;2.03;0.97;;;19.20;64.70;;;;;;5008911;28;20483;-48
2021/05/10 10:36:58;;;;;;;2.27;1.00;;;19.10;65.30;;;;;;5009917;28;20570;-48
2021/05/10 10:39:30;;;;;;;0.80;0.80;;;19.10;65.80;;;;;;5015037;28;20444;-48
2021/05/10 10:42:20;;;;;;;1.50;0.80;;;19.10;66.00;;;;;;5009397;28;21225;-48
2021/05/10 10:44:58;;;;;;;1.20;1.03;;;19.10;66.30;;;;;;5004545;28;20572;-49
2021/05/10 10:47:44;;;;;;;2.20;1.13;;;19.00;66.50;;;;;;5013789;28;20482;-48
2021/05/10 10:50:14;;;;;;;2.53;1.33;;;19.00;66.80;;;;;;5026758;28;20459;-48
2021/05/10 10:52:49;;;;;;;1.50;0.90;;;19.00;67.40;;;;;;5023788;28;20499;-48
2021/05/10 10:55:38;;;;;;;2.50;1.00;;;19.00;67.20;;;;;;5010515;28;20483;-48
2021/05/10 10:58:20;;;;;;;1.83;1.03;;;19.00;67.30;;;;;;5026329;28;20470;-48
2021/05/10 11:00:56;;;;;;;1.50;1.40;;;18.90;67.00;;;;;;5023360;28;20491;-48
2021/05/10 11:03:23;;;;;;;1.90;1.10;;;18.80;67.80;;;;;;5007691;28;20473;-48
2021/05/10 11:05:50;;;;;;;1.87;0.90;;;18.80;68.80;;;;;;5009322;28;20510;-48
2021/05/10 11:08:16;;;;;;;1.57;0.77;;;18.80;69.50;;;;;;5013893;28;20444;-48
2021/05/10 11:10:55;;;;;;;2.80;1.20;;;18.80;70.50;;;;;;5015000;28;20463;-48
2021/05/10 11:13:28;;;;;;;1.10;1.00;;;18.80;70.40;;;;;;5009163;28;20543;-48
2021/05/10 11:15:58;;;;;;;1.30;1.13;;;18.80;70.70;;;;;;5003464;28;20511;-48
2021/05/10 11:18:54;;;;;;;2.00;0.90;;;18.80;70.10;;;;;;5008636;28;20468;-48
2021/05/10 11:21:26;;;;;;;1.20;0.80;;;18.80;70.80;;;;;;5016786;28;20883;-48
2021/05/10 11:23:56;;;;;;;2.00;1.20;;;18.70;70.40;;;;;;5014534;28;20816;-48
2021/05/10 11:26:46;;;;;;;1.37;0.83;;;18.70;69.90;;;;;;5010949;28;20504;-48
2021/05/10 11:29:25;;;;;;;2.20;0.77;;;18.60;69.80;;;;;;5007597;28;20459;-48
2021/05/10 11:32:07;;;;;;;0.80;0.80;;;18.60;70.50;;;;;;5018868;28;20561;-48
2021/05/10 11:34:36;;;;;;;1.07;0.70;;;18.50;70.20;;;;;;5014443;28;20526;-48
2021/05/10 11:37:04;;;;;;;1.40;1.10;;;18.50;70.80;;;;;;5009659;28;20487;-48
2021/05/10 11:39:33;;;;;;;2.17;0.60;;;18.40;70.80;;;;;;5010358;28;20950;-48
2021/05/10 11:42:10;;;;;;;0.80;0.50;;;18.40;70.40;;;;;;5014262;28;20461;-48
2021/05/10 11:44:38;;;;;;;1.00;0.90;;;18.40;70.50;;;;;;5014353;28;20991;-48
2021/05/10 11:47:14;;;;;;;0.97;0.80;;;18.40;70.70;;;;;;5009593;28;20984;-48
2021/05/10 11:49:51;;;;;;;1.07;0.70;;;18.40;70.60;;;;;;5013060;28;20454;-48
2021/05/10 11:52:26;;;;;;;0.90;0.80;;;18.30;70.50;;;;;;5012168;28;20445;-48
2021/05/10 11:54:57;;;;;;;2.20;0.97;;;18.30;71.30;;;;;;5011482;28;20839;-48
2021/05/10 11:57:26;;;;;;;3.23;1.03;;;18.30;70.80;;;;;;5013626;28;20506;-48
2021/05/10 11:59:57;;;;;;;1.90;0.80;;;18.30;70.70;;;;;;5014247;28;20452;-48
2021/05/10 12:02:29;;;;;;;1.20;1.00;;;18.20;70.90;;;;;;5006684;28;20901;-48
2021/05/10 12:04:59;;;;;;;4.10;0.70;;;18.30;71.30;;;;;;5004057;28;20593;-48
2021/05/10 12:07:29;;;;;;;1.40;0.80;;;18.20;71.30;;;;;;5007413;28;20467;-48
2021/05/10 12:10:12;;;;;;;1.07;0.60;;;18.20;71.40;;;;;;5006938;28;20467;-48
2021/05/10 12:12:46;;;;;;;1.40;0.83;;;18.20;71.80;;;;;;5002426;28;20460;-48
2021/05/10 12:15:19;;;;;;;0.77;0.67;;;18.10;72.60;;;;;;5008265;28;21044;-48
2021/05/10 12:17:53;;;;;;;1.47;0.70;;;18.10;73.20;;;;;;5007257;28;20556;-48
2021/05/10 12:20:22;;;;;;;1.87;0.73;;;18.00;73.20;;;;;;5005329;28;20462;-48
2021/05/10 12:22:49;;;;;;;0.77;0.73;;;18.00;73.30;;;;;;5012397;28;20506;-48
2021/05/10 12:25:35;;;;;;;1.97;1.10;;;17.90;73.80;;;;;;5004834;28;20495;-48
2021/05/10 12:28:06;;;;;;;0.73;0.60;;;17.90;75.00;;;;;;5011062;28;20487;-48
2021/05/10 12:30:35;;;;;;;1.00;0.80;;;17.90;75.20;;;;;;5010356;28;20834;-48
2021/05/10 12:33:07;;;;;;;2.03;0.80;;;17.90;74.70;;;;;;5010422;28;20436;-48
2021/05/10 12:35:38;;;;;;;1.20;0.80;;;17.90;75.40;;;;;;5007987;28;20459;-48
2021/05/10 12:38:05;;;;;;;3.20;0.73;;;17.80;76.10;;;;;;5023988;28;20460;-48
2021/05/10 12:40:43;;;;;;;0.70;0.57;;;17.90;76.00;;;;;;5009524;28;20515;-48
2021/05/10 12:43:13;;;;;;;1.00;0.80;;;17.90;76.60;;;;;;5007964;28;20465;-48
2021/05/10 12:45:44;;;;;;;0.83;0.80;;;17.90;76.30;;;;;;5007838;28;20583;-48
2021/05/10 12:48:18;;;;;;;1.70;0.90;;;17.90;76.70;;;;;;5005299;28;20455;-48
2021/05/10 12:50:47;;;;;;;1.30;0.90;;;17.90;76.80;;;;;;5004431;28;20543;-48
2021/05/10 12:53:13;;;;;;;4.17;3.10;;;17.90;77.50;;;;;;5009522;28;20470;-48
2021/05/10 12:55:41;;;;;;;2.23;1.63;;;18.00;77.60;;;;;;5010869;28;20455;-48
2021/05/10 12:58:19;;;;;;;2.23;1.10;;;18.00;77.60;;;;;;5008738;28;20949;-48
2021/05/10 13:00:46;;;;;;;1.17;1.07;;;18.00;77.70;;;;;;5008254;28;20462;-48
2021/05/10 13:03:32;;;;;;;1.97;0.80;;;18.10;75.80;;;;;;5009358;28;20472;-48
2021/05/10 13:06:01;;;;;;;1.43;0.83;;;18.20;75.50;;;;;;5011918;28;20594;-48
2021/05/10 13:08:40;;;;;;;1.30;0.70;;;18.10;75.80;;;;;;5009335;28;20456;-48